createdAt,value
2018-12-22T00:00:04.063Z,10.70
2018-12-22T00:02:31.557Z,10.70
2018-12-22T00:04:59.074Z,10.70
2018-12-22T00:07:26.581Z,10.70
2018-12-22T00:09:54.106Z,10.60
2018-12-22T00:12:21.674Z,10.70
2018-12-22T00:14:49.194Z,10.70
2018-12-22T00:17:16.688Z,10.60
2018-12-22T00:19:44.209Z,10.60
2018-12-22T00:22:11.705Z,10.70
2018-12-22T00:24:39.405Z,10.70
2018-12-22T00:27:06.904Z,10.70
2018-12-22T00:29:34.424Z,10.70
2018-12-22T00:32:02.192Z,10.70
2018-12-22T00:34:29.956Z,10.70
2018-12-22T00:36:57.480Z,10.80
2018-12-22T00:39:24.983Z,10.80
2018-12-22T00:41:52.570Z,10.80
2018-12-22T00:44:20.064Z,10.80
2018-12-22T00:46:47.584Z,10.80
2018-12-22T00:49:15.180Z,10.90
2018-12-22T00:51:42.956Z,10.90
2018-12-22T00:54:10.823Z,11.00
2018-12-22T00:56:38.343Z,11.00
2018-12-22T00:59:05.838Z,11.00
2018-12-22T01:01:33.361Z,11.00
2018-12-22T01:04:00.856Z,11.00
2018-12-22T01:06:28.379Z,11.00
2018-12-22T01:08:55.874Z,11.00
2018-12-22T01:11:23.405Z,11.00
2018-12-22T01:13:50.901Z,10.90
2018-12-22T01:16:18.423Z,10.90
2018-12-22T01:18:45.918Z,10.90
2018-12-22T01:21:13.432Z,10.80
2018-12-22T01:23:40.934Z,10.80
2018-12-22T01:26:08.452Z,10.70
2018-12-22T01:28:39.565Z,10.80
2018-12-22T01:31:05.502Z,10.80
2018-12-22T01:33:32.996Z,10.80
2018-12-22T01:36:00.600Z,10.80
2018-12-22T01:38:28.097Z,10.70
2018-12-22T01:40:55.591Z,10.70
2018-12-22T01:43:23.159Z,10.70
2018-12-22T01:45:50.665Z,10.80
2018-12-22T01:48:18.209Z,10.80
2018-12-22T01:50:45.701Z,10.80
2018-12-22T01:53:13.216Z,10.80
2018-12-22T01:55:40.717Z,10.80
2018-12-22T01:58:08.232Z,10.80
2018-12-22T02:00:35.725Z,10.80
2018-12-22T02:03:03.249Z,10.70
2018-12-22T02:05:30.994Z,10.70
2018-12-22T02:07:58.509Z,10.70
2018-12-22T02:10:26.012Z,10.70
2018-12-22T02:12:53.546Z,10.60
2018-12-22T02:15:21.045Z,10.60
2018-12-22T02:17:48.569Z,10.60
2018-12-22T02:20:16.062Z,10.60
2018-12-22T02:22:43.584Z,10.60
2018-12-22T02:25:11.081Z,10.50
2018-12-22T02:27:38.613Z,10.50
2018-12-22T02:30:06.571Z,10.50
2018-12-22T02:32:34.089Z,10.50
2018-12-22T02:35:01.613Z,10.40
2018-12-22T02:37:29.241Z,10.40
2018-12-22T02:39:56.741Z,10.40
2018-12-22T02:42:24.265Z,10.40
2018-12-22T02:44:52.111Z,10.40
2018-12-22T02:47:19.636Z,10.30
2018-12-22T02:49:47.131Z,10.40
2018-12-22T02:52:14.657Z,10.40
2018-12-22T02:54:42.161Z,10.40
2018-12-22T02:57:09.686Z,10.40
2018-12-22T02:59:37.451Z,10.50
2018-12-22T03:02:04.951Z,10.50
2018-12-22T03:04:32.546Z,10.50
2018-12-22T03:07:00.069Z,10.50
2018-12-22T03:09:27.595Z,10.50
2018-12-22T03:11:55.099Z,10.50
2018-12-22T03:14:22.621Z,10.50
2018-12-22T03:16:50.125Z,10.60
2018-12-22T03:19:17.645Z,10.60
2018-12-22T03:21:45.147Z,10.60
2018-12-22T03:24:12.669Z,10.50
2018-12-22T03:26:40.167Z,10.60
2018-12-22T03:29:15.435Z,10.60
2018-12-22T03:31:37.212Z,10.50
2018-12-22T03:34:04.731Z,10.60
2018-12-22T03:36:32.234Z,10.50
2018-12-22T03:38:59.761Z,10.50
2018-12-22T03:41:27.259Z,10.50
2018-12-22T03:43:54.800Z,10.40
2018-12-22T03:46:22.294Z,10.50
2018-12-22T03:48:49.817Z,10.40
2018-12-22T03:51:17.802Z,10.50
2018-12-22T03:53:45.325Z,10.40
2018-12-22T03:56:12.825Z,10.50
2018-12-22T03:58:40.329Z,10.50
2018-12-22T04:01:07.862Z,10.40
2018-12-22T04:03:35.360Z,10.40
2018-12-22T04:06:02.885Z,10.50
2018-12-22T04:08:30.386Z,10.40
2018-12-22T04:10:57.920Z,10.40
2018-12-22T04:13:25.413Z,10.40
2018-12-22T04:15:53.246Z,10.40
2018-12-22T04:18:20.745Z,10.30
2018-12-22T04:20:48.278Z,10.30
2018-12-22T04:23:15.788Z,10.40
2018-12-22T04:25:43.318Z,10.40
2018-12-22T04:28:10.824Z,10.40
2018-12-22T04:30:38.354Z,10.40
2018-12-22T04:33:05.871Z,10.50
2018-12-22T04:35:33.393Z,10.50
2018-12-22T04:38:01.154Z,10.50
2018-12-22T04:40:28.694Z,10.50
2018-12-22T04:42:56.191Z,10.60
2018-12-22T04:45:23.713Z,10.50
2018-12-22T04:47:51.210Z,10.50
2018-12-22T04:50:18.736Z,10.60
2018-12-22T04:52:46.238Z,10.60
2018-12-22T04:55:13.762Z,10.70
2018-12-22T04:57:41.267Z,10.60
2018-12-22T05:00:09.540Z,10.60
2018-12-22T05:02:37.037Z,10.70
2018-12-22T05:05:04.786Z,10.70
2018-12-22T05:07:32.563Z,10.60
2018-12-22T05:10:00.065Z,10.60
2018-12-22T05:12:27.593Z,10.70
2018-12-22T05:14:55.085Z,10.70
2018-12-22T05:17:22.623Z,10.70
2018-12-22T05:19:50.121Z,10.70
2018-12-22T05:22:17.732Z,10.70
2018-12-22T05:24:45.229Z,10.70
2018-12-22T05:27:12.793Z,10.70
2018-12-22T05:29:40.289Z,10.70
2018-12-22T05:32:09.501Z,10.60
2018-12-22T05:34:37.128Z,10.60
2018-12-22T05:37:04.906Z,10.60
2018-12-22T05:39:32.837Z,10.60
2018-12-22T05:42:00.539Z,10.70
2018-12-22T05:44:28.046Z,10.60
2018-12-22T05:46:55.584Z,10.70
2018-12-22T05:49:23.081Z,10.70
2018-12-22T05:51:50.621Z,10.70
2018-12-22T05:54:18.381Z,10.80
2018-12-22T05:56:45.919Z,10.80
2018-12-22T05:59:13.454Z,10.80
2018-12-22T06:01:40.991Z,10.80
2018-12-22T06:04:08.544Z,10.80
2018-12-22T06:06:36.045Z,10.90
2018-12-22T06:09:05.392Z,10.90
2018-12-22T06:11:32.939Z,10.90
2018-12-22T06:14:00.482Z,10.90
2018-12-22T06:16:27.980Z,10.90
2018-12-22T06:18:55.526Z,10.90
2018-12-22T06:21:23.026Z,10.90
2018-12-22T06:23:50.530Z,10.90
2018-12-22T06:26:18.440Z,11.00
2018-12-22T06:28:45.939Z,11.10
2018-12-22T06:31:13.471Z,11.00
2018-12-22T06:33:41.028Z,11.00
2018-12-22T06:36:08.625Z,11.00
2018-12-22T06:38:36.117Z,11.00
2018-12-22T06:41:03.633Z,11.00
2018-12-22T06:43:31.166Z,11.00
2018-12-22T06:45:58.915Z,11.10
2018-12-22T06:48:26.562Z,11.10
2018-12-22T06:50:54.078Z,11.00
2018-12-22T06:53:21.897Z,11.00
2018-12-22T06:55:49.392Z,11.00
2018-12-22T06:58:16.945Z,11.00
2018-12-22T07:00:44.452Z,11.00
2018-12-22T07:03:11.989Z,11.00
2018-12-22T07:05:39.780Z,11.00
2018-12-22T07:08:07.650Z,11.10
2018-12-22T07:10:35.153Z,11.20
2018-12-22T07:13:02.654Z,11.20
2018-12-22T07:15:30.303Z,11.20
2018-12-22T07:17:57.797Z,11.30
2018-12-22T07:20:25.334Z,11.40
2018-12-22T07:22:52.831Z,11.40
2018-12-22T07:25:20.381Z,11.50
2018-12-22T07:27:47.878Z,11.50
2018-12-22T07:30:15.418Z,11.60
2018-12-22T07:32:42.953Z,11.60
2018-12-22T07:35:10.449Z,11.60
2018-12-22T07:37:37.985Z,11.60
2018-12-22T07:40:05.639Z,11.60
2018-12-22T07:42:33.445Z,11.60
2018-12-22T07:45:00.941Z,11.60
2018-12-22T07:47:28.476Z,11.70
2018-12-22T07:49:55.977Z,11.60
2018-12-22T07:52:23.522Z,11.60
2018-12-22T07:54:51.059Z,11.60
2018-12-22T07:57:18.566Z,11.60
2018-12-22T07:59:46.100Z,11.70
2018-12-22T08:02:13.635Z,11.60
2018-12-22T08:04:41.138Z,11.60
2018-12-22T08:07:08.672Z,11.60
2018-12-22T08:09:36.205Z,11.60
2018-12-22T08:12:03.705Z,11.60
2018-12-22T08:14:31.244Z,11.60
2018-12-22T08:16:58.740Z,11.60
2018-12-22T08:19:26.589Z,11.60
2018-12-22T08:21:54.145Z,11.60
2018-12-22T08:24:21.646Z,11.50
2018-12-22T08:26:49.189Z,11.40
2018-12-22T08:29:16.689Z,11.50
2018-12-22T08:31:44.224Z,11.50
2018-12-22T08:34:11.729Z,11.50
2018-12-22T08:36:39.265Z,11.40
2018-12-22T08:39:06.808Z,11.50
2018-12-22T08:41:34.353Z,11.50
2018-12-22T08:44:01.853Z,11.50
2018-12-22T08:46:29.393Z,11.60
2018-12-22T08:48:56.925Z,11.70
2018-12-22T08:51:24.421Z,11.70
2018-12-22T08:53:51.960Z,11.80
2018-12-22T08:56:19.461Z,11.60
2018-12-22T08:58:47.009Z,11.60
2018-12-22T09:01:14.510Z,11.60
2018-12-22T09:03:42.026Z,11.60
2018-12-22T09:06:09.560Z,11.60
2018-12-22T09:08:37.103Z,11.60
2018-12-22T09:11:04.606Z,11.60
2018-12-22T09:13:32.153Z,11.70
2018-12-22T09:15:59.653Z,11.60
2018-12-22T09:18:27.221Z,11.60
2018-12-22T09:20:54.741Z,11.60
2018-12-22T09:23:22.282Z,11.70
2018-12-22T09:25:50.304Z,11.80
2018-12-22T09:28:17.805Z,11.80
2018-12-22T09:30:45.312Z,11.90
2018-12-22T09:33:12.849Z,11.80
2018-12-22T09:35:40.646Z,11.90
2018-12-22T09:38:08.150Z,11.80
2018-12-22T09:40:35.968Z,11.60
2018-12-22T09:43:04.251Z,11.50
2018-12-22T09:45:31.798Z,11.30
2018-12-22T09:47:59.374Z,11.00
2018-12-22T09:50:27.112Z,10.80
2018-12-22T09:52:54.609Z,10.60
2018-12-22T09:55:22.435Z,10.50
2018-12-22T09:57:49.950Z,10.40
2018-12-22T10:00:17.499Z,10.30
2018-12-22T10:02:45.066Z,10.10
2018-12-22T10:05:12.570Z,10.00
2018-12-22T10:07:40.070Z,10.00
2018-12-22T10:10:10.470Z,10.10
2018-12-22T10:12:38.011Z,10.10
2018-12-22T10:15:07.955Z,10.20
2018-12-22T10:17:35.498Z,10.10
2018-12-22T10:20:03.189Z,10.10
2018-12-22T10:22:30.730Z,10.10
2018-12-22T10:24:58.269Z,10.10
2018-12-22T10:27:25.772Z,10.10
2018-12-22T10:29:53.317Z,10.10
2018-12-22T10:32:20.822Z,10.20
2018-12-22T10:34:48.405Z,10.20
2018-12-22T10:37:15.910Z,10.20
2018-12-22T10:39:43.678Z,10.20
2018-12-22T10:42:11.618Z,10.10
2018-12-22T10:44:39.158Z,10.20
2018-12-22T10:47:06.661Z,10.20
2018-12-22T10:49:34.209Z,10.40
2018-12-22T10:52:01.972Z,10.50
2018-12-22T10:54:30.359Z,10.60
2018-12-22T10:56:57.905Z,10.80
2018-12-22T10:59:25.401Z,11.20
2018-12-22T11:01:52.945Z,11.50
2018-12-22T11:04:20.454Z,11.50
2018-12-22T11:06:47.994Z,11.50
2018-12-22T11:09:15.494Z,11.30
2018-12-22T11:11:43.033Z,11.30
2018-12-22T11:14:11.964Z,11.20
2018-12-22T11:16:39.703Z,11.40
2018-12-22T11:19:07.241Z,11.40
2018-12-22T11:21:34.794Z,11.40
2018-12-22T11:24:02.987Z,11.50
2018-12-22T11:26:30.654Z,11.50
2018-12-22T11:28:58.222Z,11.40
2018-12-22T11:31:25.784Z,11.50
2018-12-22T11:33:53.442Z,11.60
2018-12-22T11:36:20.949Z,11.70
2018-12-22T11:38:48.493Z,11.80
2018-12-22T11:41:16.001Z,11.80
2018-12-22T11:43:43.537Z,11.90
2018-12-22T11:46:11.036Z,11.90
2018-12-22T11:48:39.548Z,11.90
2018-12-22T11:51:07.054Z,11.80
2018-12-22T11:53:34.681Z,11.80
2018-12-22T11:56:02.204Z,11.80
2018-12-22T11:58:29.701Z,11.60
2018-12-22T12:00:58.032Z,11.60
2018-12-22T12:03:25.538Z,11.40
2018-12-22T12:05:53.100Z,11.40
2018-12-22T12:08:20.614Z,11.40
2018-12-22T12:10:48.177Z,11.40
2018-12-22T12:13:15.728Z,11.30
2018-12-22T12:15:46.784Z,11.20
2018-12-22T12:18:32.183Z,11.00
2018-12-22T12:20:59.726Z,10.80
2018-12-22T12:23:27.274Z,10.80
2018-12-22T12:25:54.827Z,10.90
2018-12-22T12:28:22.339Z,11.00
2018-12-22T12:30:49.881Z,11.10
2018-12-22T12:33:18.987Z,11.10
2018-12-22T12:35:46.582Z,11.20
2018-12-22T12:38:14.121Z,11.30
2018-12-22T12:40:41.622Z,11.20
2018-12-22T12:43:10.350Z,11.30
2018-12-22T12:45:37.850Z,11.20
2018-12-22T12:48:05.390Z,11.20
2018-12-22T12:50:33.014Z,11.10
2018-12-22T12:53:09.346Z,11.30
2018-12-22T12:55:30.089Z,11.30
2018-12-22T12:57:57.626Z,11.20
2018-12-22T13:00:25.165Z,11.30
2018-12-22T13:02:52.705Z,11.20
2018-12-22T13:05:20.204Z,11.00
2018-12-22T13:07:47.737Z,11.20
2018-12-22T13:10:15.238Z,11.10
2018-12-22T13:15:48.607Z,11.40
2018-12-22T13:18:16.145Z,11.20
2018-12-22T13:20:43.640Z,11.10
2018-12-22T13:23:11.179Z,11.10
2018-12-22T13:25:38.678Z,11.10
2018-12-22T13:28:06.221Z,11.00
2018-12-22T13:30:33.715Z,11.00
2018-12-22T13:33:01.692Z,11.00
2018-12-22T13:35:29.369Z,11.10
2018-12-22T13:37:56.925Z,11.10
2018-12-22T13:40:25.402Z,11.10
2018-12-22T13:42:52.907Z,11.20
2018-12-22T13:45:20.437Z,11.10
2018-12-22T13:47:47.974Z,11.10
2018-12-22T13:50:15.532Z,11.10
2018-12-22T13:52:43.121Z,11.10
2018-12-22T13:55:10.617Z,11.20
2018-12-22T13:57:41.966Z,11.10
2018-12-22T14:00:14.521Z,11.20
2018-12-22T14:02:42.088Z,11.10
2018-12-22T14:05:12.894Z,11.10
2018-12-22T14:07:40.397Z,11.20
2018-12-22T14:10:11.305Z,11.30
2018-12-22T14:12:38.846Z,11.30
2018-12-22T14:15:11.693Z,11.30
2018-12-22T14:17:41.345Z,11.20
2018-12-22T14:20:09.925Z,11.30
2018-12-22T14:22:37.451Z,11.30
2018-12-22T14:25:12.166Z,11.30
2018-12-22T14:27:39.693Z,11.30
2018-12-22T14:30:11.840Z,11.30
2018-12-22T14:32:39.695Z,11.20
2018-12-22T14:35:11.522Z,11.20
2018-12-22T14:37:39.045Z,11.10
2018-12-22T14:40:11.065Z,11.00
2018-12-22T14:42:38.850Z,11.10
2018-12-22T14:45:12.662Z,11.20
2018-12-22T14:47:40.760Z,11.20
2018-12-22T14:50:10.818Z,11.10
2018-12-22T14:52:38.389Z,11.20
2018-12-22T14:55:09.458Z,11.20
2018-12-22T14:57:56.059Z,11.20
2018-12-22T15:00:23.639Z,11.10
2018-12-22T15:02:51.192Z,11.30
2018-12-22T15:05:18.936Z,11.20
2018-12-22T15:07:46.512Z,11.20
2018-12-22T15:10:14.123Z,11.20
2018-12-22T15:12:41.621Z,11.10
2018-12-22T15:15:11.471Z,10.90
2018-12-22T15:17:41.328Z,11.00
2018-12-22T15:20:17.489Z,11.00
2018-12-22T15:22:45.342Z,10.90
2018-12-22T15:25:12.865Z,11.10
2018-12-22T15:27:40.361Z,11.10
2018-12-22T15:30:13.008Z,11.10
2018-12-22T15:32:46.293Z,11.00
2018-12-22T15:35:10.331Z,11.00
2018-12-22T15:37:37.920Z,11.10
2018-12-22T15:40:09.920Z,11.00
2018-12-22T15:42:37.578Z,10.90
2018-12-22T15:45:15.185Z,10.90
2018-12-22T15:47:44.053Z,10.90
2018-12-22T15:50:18.022Z,11.00
2018-12-22T15:52:45.525Z,11.10
2018-12-22T15:55:13.044Z,11.20
2018-12-22T15:57:40.798Z,11.30
2018-12-22T16:00:11.508Z,11.20
2018-12-22T16:02:39.086Z,11.20
2018-12-22T16:05:09.410Z,11.20
2018-12-22T16:07:36.989Z,11.30
2018-12-22T16:10:08.252Z,11.30
2018-12-22T16:12:35.780Z,11.30
2018-12-22T16:15:05.141Z,11.40
2018-12-22T16:17:32.921Z,11.40
2018-12-22T16:20:00.532Z,11.30
2018-12-22T16:22:28.159Z,11.30
2018-12-22T16:24:55.660Z,11.30
2018-12-22T16:27:23.185Z,11.30
2018-12-22T16:29:50.690Z,11.20
2018-12-22T16:32:18.212Z,11.20
2018-12-22T16:34:45.714Z,11.20
2018-12-22T16:37:13.242Z,11.10
2018-12-22T16:39:40.737Z,11.10
2018-12-22T16:42:08.261Z,11.10
2018-12-22T16:44:35.757Z,11.10
2018-12-22T16:47:03.281Z,11.10
2018-12-22T16:49:30.781Z,11.10
2018-12-22T16:51:58.618Z,11.10
2018-12-22T16:54:26.146Z,11.10
2018-12-22T16:56:53.653Z,11.10
2018-12-22T16:59:21.493Z,11.00
2018-12-22T17:01:49.069Z,10.90
2018-12-22T17:04:16.913Z,10.80
2018-12-22T17:06:44.676Z,10.70
2018-12-22T17:09:12.281Z,10.70
2018-12-22T17:11:39.781Z,10.70
2018-12-22T17:14:07.550Z,10.70
2018-12-22T17:16:35.051Z,10.50
2018-12-22T17:19:02.577Z,10.50
2018-12-22T17:21:31.851Z,10.40
2018-12-22T17:24:01.257Z,10.40
2018-12-22T17:26:30.309Z,10.60
2018-12-22T17:28:57.838Z,10.50
2018-12-22T17:31:25.401Z,10.60
2018-12-22T17:33:52.935Z,10.60
2018-12-22T17:36:20.433Z,10.30
2018-12-22T17:38:47.930Z,10.40
2018-12-22T17:41:15.454Z,10.40
2018-12-22T17:43:43.029Z,10.50
2018-12-22T17:46:10.549Z,10.50
2018-12-22T17:48:38.055Z,10.50
2018-12-22T17:51:05.577Z,10.50
2018-12-22T17:53:33.073Z,10.40
2018-12-22T17:56:00.598Z,10.50
2018-12-22T17:58:28.107Z,10.40
2018-12-22T18:00:55.633Z,10.30
2018-12-22T18:03:27.347Z,10.40
2018-12-22T18:05:53.309Z,10.40
2018-12-22T18:08:20.810Z,10.40
2018-12-22T18:10:48.338Z,10.50
2018-12-22T18:13:15.849Z,10.50
2018-12-22T18:15:43.409Z,10.60
2018-12-22T18:18:10.910Z,10.50
2018-12-22T18:20:38.429Z,10.40
2018-12-22T18:23:05.938Z,10.40
2018-12-22T18:25:33.466Z,10.50
2018-12-22T18:28:00.970Z,10.50
2018-12-22T18:30:28.495Z,10.40
2018-12-22T18:32:55.996Z,10.50
2018-12-22T18:35:23.517Z,10.50
2018-12-22T18:37:51.012Z,10.50
2018-12-22T18:40:21.733Z,10.60
2018-12-22T18:42:49.233Z,10.60
2018-12-22T18:45:16.730Z,10.60
2018-12-22T18:47:44.510Z,10.50
2018-12-22T18:50:17.448Z,10.40
2018-12-22T18:52:45.048Z,10.50
2018-12-22T18:55:12.734Z,10.50
2018-12-22T18:57:40.328Z,10.50
2018-12-22T19:00:16.301Z,10.60
2018-12-22T19:02:43.834Z,10.50
2018-12-22T19:05:11.993Z,10.60
2018-12-22T19:07:39.519Z,10.60
2018-12-22T19:10:15.382Z,10.50
2018-12-22T19:12:42.918Z,10.50
2018-12-22T19:15:10.429Z,10.60
2018-12-22T19:17:37.953Z,10.60
2018-12-22T19:20:09.401Z,10.60
2018-12-22T19:22:36.922Z,10.70
2018-12-22T19:25:06.370Z,10.60
2018-12-22T19:27:33.893Z,10.60
2018-12-22T19:30:01.393Z,10.60
2018-12-22T19:32:28.921Z,10.60
2018-12-22T19:34:56.422Z,10.70
2018-12-22T19:37:23.943Z,10.70
2018-12-22T19:39:51.449Z,10.70
2018-12-22T19:42:18.995Z,10.60
2018-12-22T19:44:46.713Z,10.60
2018-12-22T19:47:14.287Z,10.50
2018-12-22T19:49:41.794Z,10.50
2018-12-22T19:52:09.296Z,10.50
2018-12-22T19:54:36.825Z,10.50
2018-12-22T19:57:04.336Z,10.20
2018-12-22T19:59:31.861Z,10.30
2018-12-22T20:01:59.364Z,10.20
2018-12-22T20:04:26.890Z,10.30
2018-12-22T20:06:54.384Z,10.30
2018-12-22T20:09:21.916Z,10.30
2018-12-22T20:11:49.598Z,10.30
2018-12-22T20:14:17.125Z,10.20
2018-12-22T20:16:44.626Z,10.20
2018-12-22T20:19:12.149Z,10.30
2018-12-22T20:21:39.645Z,10.10
2018-12-22T20:24:07.414Z,10.30
2018-12-22T20:26:34.921Z,10.30
2018-12-22T20:29:02.448Z,10.40
2018-12-22T20:31:29.945Z,10.40
2018-12-22T20:33:57.465Z,10.40
2018-12-22T20:36:24.977Z,10.30
2018-12-22T20:38:52.506Z,10.20
2018-12-22T20:41:20.009Z,10.30
2018-12-22T20:43:47.573Z,10.20
2018-12-22T20:46:15.070Z,9.90
2018-12-22T20:48:42.564Z,9.80
2018-12-22T20:51:10.090Z,10.00
2018-12-22T20:53:37.588Z,10.10
2018-12-22T20:56:05.113Z,10.10
2018-12-22T20:58:32.652Z,10.10
2018-12-22T21:01:00.186Z,10.20
2018-12-22T21:03:33.582Z,10.20
2018-12-22T21:06:03.082Z,10.20
2018-12-22T21:08:30.587Z,10.00
2018-12-22T21:10:58.109Z,10.00
2018-12-22T21:13:25.605Z,9.90
2018-12-22T21:15:53.126Z,9.90
2018-12-22T21:18:20.629Z,10.00
2018-12-22T21:20:48.149Z,10.00
2018-12-22T21:23:15.643Z,9.90
2018-12-22T21:25:43.177Z,10.00
2018-12-22T21:28:10.674Z,9.80
2018-12-22T21:30:38.192Z,9.70
2018-12-22T21:33:05.694Z,9.70
2018-12-22T21:35:33.218Z,9.60
2018-12-22T21:38:00.710Z,9.80
2018-12-22T21:40:28.237Z,9.80
2018-12-22T21:42:55.816Z,9.70
2018-12-22T21:45:23.313Z,9.90
2018-12-22T21:47:51.103Z,10.00
2018-12-22T21:50:18.620Z,9.70
2018-12-22T21:52:46.149Z,9.80
2018-12-22T21:55:13.650Z,9.80
2018-12-22T21:57:41.297Z,9.60
2018-12-22T22:00:08.790Z,9.70
2018-12-22T22:02:36.310Z,9.40
2018-12-22T22:05:04.077Z,9.50
2018-12-22T22:07:31.859Z,9.30
2018-12-22T22:09:59.628Z,9.20
2018-12-22T22:12:27.182Z,9.20
2018-12-22T22:14:54.680Z,9.30
2018-12-22T22:17:22.199Z,9.40
2018-12-22T22:19:49.710Z,9.30
2018-12-22T22:22:17.529Z,9.30
2018-12-22T22:24:45.209Z,9.20
2018-12-22T22:27:12.824Z,9.20
2018-12-22T22:29:40.324Z,9.20
2018-12-22T22:32:07.851Z,9.10
2018-12-22T22:34:35.345Z,9.20
2018-12-22T22:37:03.009Z,9.10
2018-12-22T22:39:30.506Z,9.00
2018-12-22T22:41:58.185Z,9.00
2018-12-22T22:44:25.717Z,8.90
2018-12-22T22:46:53.479Z,8.90
2018-12-22T22:49:21.321Z,8.70
2018-12-22T22:51:49.384Z,8.80
2018-12-22T22:54:17.186Z,8.80
2018-12-22T22:56:45.005Z,8.60
2018-12-22T22:59:12.752Z,8.50
2018-12-22T23:01:40.825Z,8.40
2018-12-22T23:04:08.349Z,8.30
2018-12-22T23:06:35.850Z,8.20
2018-12-22T23:09:04.793Z,8.40
2018-12-22T23:11:32.293Z,8.50
2018-12-22T23:13:59.809Z,8.60
2018-12-22T23:16:27.314Z,8.40
2018-12-22T23:18:54.834Z,8.60
2018-12-22T23:21:22.325Z,8.50
2018-12-22T23:23:49.858Z,8.30
2018-12-22T23:26:17.351Z,8.30
2018-12-22T23:28:44.865Z,8.20
2018-12-22T23:31:12.353Z,8.20
2018-12-22T23:33:39.869Z,8.30
2018-12-22T23:36:07.371Z,8.20
2018-12-22T23:38:34.893Z,8.20
2018-12-22T23:41:02.403Z,8.30
2018-12-22T23:43:29.928Z,8.20
2018-12-22T23:45:57.421Z,8.20
2018-12-22T23:48:25.523Z,8.20
2018-12-22T23:50:53.290Z,8.20
2018-12-22T23:53:20.794Z,8.40
2018-12-22T23:55:48.310Z,8.30
2018-12-22T23:58:15.802Z,8.30
